createdAt,value
2023-04-17T00:03:30.806Z,13.20
2023-04-17T00:08:34.499Z,13.20
2023-04-17T00:13:36.775Z,13.20
2023-04-17T00:18:39.002Z,13.10
2023-04-17T00:23:42.711Z,13.10
2023-04-17T00:28:44.807Z,13.10
2023-04-17T00:33:46.987Z,13.10
2023-04-17T00:38:50.718Z,13.10
2023-04-17T00:43:52.869Z,13.00
2023-04-17T00:48:55.385Z,13.00
2023-04-17T00:54:00.205Z,13.00
2023-04-17T00:59:05.876Z,12.90
2023-04-17T01:04:09.173Z,12.90
2023-04-17T01:09:14.055Z,12.90
2023-04-17T01:14:16.323Z,12.80
2023-04-17T01:19:19.342Z,12.80
2023-04-17T01:24:22.857Z,12.70
2023-04-17T01:29:24.991Z,12.70
2023-04-17T01:34:27.327Z,12.60
2023-04-17T01:39:30.967Z,12.60
2023-04-17T01:44:33.097Z,12.60
2023-04-17T01:49:35.205Z,12.60
2023-04-17T01:54:38.896Z,12.50
2023-04-17T01:59:41.051Z,12.50
2023-04-17T02:04:43.335Z,12.40
2023-04-17T02:09:47.161Z,12.40
2023-04-17T02:14:49.227Z,12.40
2023-04-17T02:19:51.324Z,12.30
2023-04-17T02:24:54.863Z,12.30
2023-04-17T02:29:57.006Z,12.30
2023-04-17T02:34:59.149Z,12.30
2023-04-17T02:40:02.739Z,12.20
2023-04-17T02:45:05.677Z,12.20
2023-04-17T02:50:08.848Z,12.10
2023-04-17T02:55:12.352Z,12.10
2023-04-17T03:00:15.038Z,12.10
2023-04-17T03:05:18.628Z,12.10
2023-04-17T03:10:22.165Z,12.00
2023-04-17T03:15:24.445Z,12.00
2023-04-17T03:20:26.573Z,12.00
2023-04-17T03:25:30.364Z,12.00
2023-04-17T03:30:32.544Z,11.90
2023-04-17T03:35:34.651Z,11.90
2023-04-17T03:40:38.308Z,11.90
2023-04-17T03:45:40.482Z,11.90
2023-04-17T03:50:42.644Z,11.90
2023-04-17T03:55:46.361Z,11.90
2023-04-17T04:00:48.601Z,11.90
2023-04-17T04:05:50.871Z,11.90
2023-04-17T04:10:54.512Z,11.90
2023-04-17T04:15:56.825Z,11.90
2023-04-17T04:20:59.016Z,11.90
2023-04-17T04:26:02.526Z,11.80
2023-04-17T04:31:04.997Z,11.90
2023-04-17T04:41:34.854Z,11.80
2023-04-17T04:46:37.085Z,11.80
2023-04-17T04:51:39.770Z,11.80
2023-04-17T04:56:43.331Z,11.80
2023-04-17T05:01:45.723Z,11.80
2023-04-17T05:06:47.957Z,11.80
2023-04-17T05:11:51.749Z,11.80
2023-04-17T05:16:54.192Z,11.90
2023-04-17T05:21:56.381Z,11.90
2023-04-17T05:26:59.977Z,12.00
2023-04-17T05:32:02.191Z,12.00
2023-04-17T05:37:04.443Z,12.10
2023-04-17T05:42:08.101Z,12.20
2023-04-17T05:47:10.284Z,12.30
2023-04-17T05:52:12.422Z,12.40
2023-04-17T05:57:15.989Z,12.50
2023-04-17T06:02:18.215Z,12.60
2023-04-17T06:07:20.601Z,12.80
2023-04-17T06:12:24.441Z,13.00
2023-04-17T06:17:26.715Z,13.10
2023-04-17T06:22:29.009Z,13.30
2023-04-17T06:27:34.456Z,13.50
2023-04-17T06:32:41.415Z,13.60
2023-04-17T06:37:43.615Z,13.80
2023-04-17T06:42:47.247Z,14.00
2023-04-17T06:47:49.535Z,14.20
2023-04-17T06:52:51.717Z,14.40
2023-04-17T06:57:55.466Z,14.70
2023-04-17T07:03:00.625Z,14.90
2023-04-17T07:08:02.825Z,15.20
2023-04-17T07:13:06.505Z,15.50
2023-04-17T07:18:08.778Z,15.80
2023-04-17T07:23:10.937Z,16.10
2023-04-17T07:28:14.850Z,16.50
2023-04-17T07:33:17.117Z,16.80
2023-04-17T07:38:19.325Z,17.30
2023-04-17T07:43:24.953Z,17.70
2023-04-17T07:48:27.081Z,18.20
2023-04-17T07:53:29.358Z,18.70
2023-04-17T07:58:32.951Z,19.30
2023-04-17T08:03:35.386Z,19.70
2023-04-17T08:08:37.898Z,20.20
2023-04-17T08:13:41.466Z,20.60
2023-04-17T08:18:43.669Z,20.90
2023-04-17T08:23:45.858Z,21.10
2023-04-17T08:28:49.510Z,21.40
2023-04-17T08:33:56.957Z,21.80
2023-04-17T08:39:08.722Z,22.10
2023-04-17T08:44:12.338Z,22.40
2023-04-17T08:49:14.717Z,22.70
2023-04-17T08:54:16.902Z,22.90
2023-04-17T08:59:20.766Z,23.20
2023-04-17T09:04:36.554Z,23.50
2023-04-17T09:09:52.977Z,23.90
2023-04-17T09:14:56.363Z,24.20
2023-04-17T09:20:06.837Z,24.70
2023-04-17T09:25:19.900Z,25.30
2023-04-17T09:30:25.414Z,25.90
2023-04-17T09:35:27.746Z,26.40
2023-04-17T09:40:38.724Z,26.30
2023-04-17T09:45:43.009Z,26.20
2023-04-17T09:50:46.354Z,26.60
2023-04-17T09:55:49.033Z,27.30
2023-04-17T10:00:52.923Z,28.00
2023-04-17T10:05:55.413Z,28.60
2023-04-17T10:11:04.974Z,29.10
2023-04-17T10:16:08.875Z,29.30
2023-04-17T10:21:21.553Z,28.90
2023-04-17T10:26:41.336Z,28.50
2023-04-17T10:32:16.081Z,28.40
2023-04-17T10:37:18.446Z,28.80
2023-04-17T10:42:21.713Z,29.20
2023-04-17T10:47:31.464Z,29.60
2023-04-17T10:52:41.902Z,29.80
2023-04-17T10:57:58.998Z,29.90
2023-04-17T11:03:03.368Z,30.00
2023-04-17T11:08:06.567Z,30.10
2023-04-17T11:13:08.798Z,30.20
2023-04-17T11:18:13.370Z,30.40
2023-04-17T11:23:16.698Z,30.60
2023-04-17T11:28:18.977Z,30.70
2023-04-17T11:33:22.579Z,30.60
2023-04-17T11:38:24.780Z,30.50
2023-04-17T11:43:29.188Z,30.30
2023-04-17T11:48:32.775Z,30.10
2023-04-17T11:53:35.746Z,30.10
2023-04-17T11:58:45.789Z,30.00
2023-04-17T12:03:49.491Z,29.90
2023-04-17T12:08:53.728Z,29.80
2023-04-17T12:13:56.756Z,29.60
2023-04-17T12:19:00.541Z,29.50
2023-04-17T12:24:02.718Z,29.40
2023-04-17T12:29:04.980Z,29.20
2023-04-17T12:34:08.848Z,29.00
2023-04-17T12:39:11.130Z,28.80
2023-04-17T12:44:14.725Z,28.60
2023-04-17T12:49:18.964Z,28.40
2023-04-17T12:54:21.321Z,28.10
2023-04-17T12:59:23.471Z,27.70
2023-04-17T13:04:27.330Z,27.30
2023-04-17T13:09:29.638Z,27.00
2023-04-17T13:14:31.897Z,26.80
2023-04-17T13:19:36.225Z,26.50
2023-04-17T13:24:38.382Z,26.30
2023-04-17T13:29:40.748Z,26.10
2023-04-17T13:34:44.520Z,25.80
2023-04-17T13:39:46.743Z,25.50
2023-04-17T13:44:49.042Z,25.30
2023-04-17T13:49:52.801Z,25.20
2023-04-17T13:54:55.087Z,25.10
2023-04-17T13:59:57.252Z,25.00
2023-04-17T14:05:00.966Z,24.70
2023-04-17T14:10:03.368Z,24.60
2023-04-17T14:15:07.814Z,24.40
2023-04-17T14:20:13.354Z,24.40
2023-04-17T14:25:15.920Z,24.20
2023-04-17T14:30:18.156Z,24.10
2023-04-17T14:35:21.702Z,24.00
2023-04-17T14:40:23.894Z,23.80
2023-04-17T14:45:25.964Z,23.60
2023-04-17T14:50:29.779Z,23.30
2023-04-17T14:55:32.991Z,23.20
2023-04-17T15:00:35.257Z,23.10
2023-04-17T15:05:39.195Z,22.80
2023-04-17T15:10:50.773Z,22.60
2023-04-17T15:15:53.713Z,22.50
2023-04-17T15:20:57.439Z,22.50
2023-04-17T15:26:00.183Z,22.40
2023-04-17T15:31:03.013Z,22.40
2023-04-17T15:36:07.361Z,22.20
2023-04-17T15:41:10.904Z,22.10
2023-04-17T15:46:13.724Z,22.00
2023-04-17T15:51:17.967Z,21.90
2023-04-17T15:56:20.279Z,21.80
2023-04-17T16:01:22.784Z,21.70
2023-04-17T16:06:26.468Z,21.60
2023-04-17T16:11:28.620Z,21.50
2023-04-17T16:16:30.840Z,21.40
2023-04-17T16:21:34.543Z,21.30
2023-04-17T16:26:36.979Z,21.20
2023-04-17T16:31:44.330Z,21.00
2023-04-17T16:36:48.661Z,20.80
2023-04-17T16:41:50.879Z,20.60
2023-04-17T16:47:12.113Z,20.40
2023-04-17T16:52:16.620Z,20.30
2023-04-17T16:57:18.917Z,20.20
2023-04-17T17:02:21.139Z,20.00
2023-04-17T17:07:24.814Z,19.70
2023-04-17T17:12:26.993Z,19.50
2023-04-17T17:17:29.171Z,19.20
2023-04-17T17:22:32.856Z,19.00
2023-04-17T17:27:35.196Z,18.80
2023-04-17T17:32:37.318Z,18.60
2023-04-17T17:37:40.900Z,18.30
2023-04-17T17:42:43.030Z,18.00
2023-04-17T17:47:45.134Z,17.60
2023-04-17T17:52:48.710Z,17.40
2023-04-17T17:57:50.876Z,17.20
2023-04-17T18:02:53.226Z,17.10
2023-04-17T18:07:56.913Z,16.90
2023-04-17T18:12:59.040Z,16.80
2023-04-17T18:18:01.228Z,16.70
2023-04-17T18:23:04.869Z,16.60
2023-04-17T18:28:07.256Z,16.50
2023-04-17T18:33:09.471Z,16.30
2023-04-17T18:38:13.143Z,16.20
2023-04-17T18:43:15.323Z,16.00
2023-04-17T18:48:17.500Z,15.90
2023-04-17T18:53:21.077Z,15.70
2023-04-17T18:58:23.189Z,15.40
2023-04-17T19:03:25.587Z,15.10
2023-04-17T19:08:29.222Z,14.90
2023-04-17T19:13:31.499Z,14.60
2023-04-17T19:18:33.638Z,14.40
2023-04-17T19:23:38.382Z,14.20
2023-04-17T19:28:40.556Z,14.00
2023-04-17T19:33:42.690Z,13.70
2023-04-17T19:38:46.572Z,13.40
2023-04-17T19:43:50.280Z,13.20
2023-04-17T19:48:52.451Z,12.90
2023-04-17T19:53:56.048Z,12.70
2023-04-17T19:59:01.084Z,12.50
2023-04-17T20:04:03.299Z,12.30
2023-04-17T20:09:07.073Z,12.20
2023-04-17T20:14:10.470Z,12.10
2023-04-17T20:19:15.802Z,11.90
2023-04-17T20:24:19.313Z,11.80
2023-04-17T20:29:22.416Z,11.80
2023-04-17T20:34:25.064Z,11.70
2023-04-17T20:39:29.763Z,11.70
2023-04-17T20:44:32.149Z,11.60
2023-04-17T20:49:37.090Z,11.60
2023-04-17T20:54:40.757Z,11.60
2023-04-17T20:59:42.872Z,11.70
2023-04-17T21:04:45.076Z,11.70
2023-04-17T21:09:48.734Z,11.70
2023-04-17T21:14:50.869Z,11.70
2023-04-17T21:19:53.009Z,11.70
2023-04-17T21:24:56.578Z,11.70
2023-04-17T21:29:58.678Z,11.70
2023-04-17T21:35:00.820Z,11.70
2023-04-17T21:40:04.790Z,11.60
2023-04-17T21:45:08.029Z,11.60
2023-04-17T21:50:10.899Z,11.60
2023-04-17T21:55:14.585Z,11.50
2023-04-17T22:00:17.326Z,11.40
2023-04-17T22:05:19.707Z,11.40
2023-04-17T22:10:23.735Z,11.40
2023-04-17T22:15:25.848Z,11.30
2023-04-17T22:20:28.229Z,11.20
2023-04-17T22:25:31.928Z,11.20
2023-04-17T22:30:34.095Z,11.10
2023-04-17T22:35:36.394Z,11.00
2023-04-17T22:40:40.024Z,10.80
2023-04-17T22:45:45.227Z,10.70
2023-04-17T22:50:47.342Z,10.60
2023-04-17T22:56:01.689Z,10.60
2023-04-17T23:01:03.877Z,10.50
2023-04-17T23:06:06.016Z,10.40
2023-04-17T23:11:09.660Z,10.40
2023-04-17T23:16:11.784Z,10.40
2023-04-17T23:21:13.922Z,10.30
2023-04-17T23:26:17.477Z,10.30
2023-04-17T23:31:19.687Z,10.20
2023-04-17T23:36:21.797Z,10.20
2023-04-17T23:41:25.281Z,10.10
2023-04-17T23:46:27.385Z,10.10
2023-04-17T23:51:29.560Z,10.00
2023-04-17T23:56:33.210Z,10.00
